Time;durP1;ratioP1;P1;durP2;ratioP2;P2;SDS_P1;SDS_P2;PMS_P1;PMS_P2;Temp;Humidity;BMP_temperature;BMP_pressure;BME280_temperature;BME280_humidity;BME280_pressure;Samples;Min_cycle;Max_cycle;Signal;HPM_P1;HPM_P2
2022/12/03 06:36:42;;;;;;;17.38;8.93;;;;;;;;;;5588656;22;20504;-60
2022/12/03 06:39:08;;;;;;;15.60;8.30;;;;;;;;;;4990973;28;20041;-71
2022/12/03 06:41:34;;;;;;;18.08;8.48;;;;;;;;;;4990898;28;20026;-75
2022/12/03 06:44:00;;;;;;;17.05;8.18;;;;;;;;;;4991844;28;20073;-69
2022/12/03 06:46:26;;;;;;;16.67;8.40;;;;;;;;;;4992059;28;20058;-77
2022/12/03 06:48:52;;;;;;;16.83;8.73;;;;;;;;;;4991811;28;20486;-62
2022/12/03 06:51:18;;;;;;;17.50;8.60;;;;;;;;;;4991510;28;20116;-59
2022/12/03 06:53:44;;;;;;;15.45;8.50;;;;;;;;;;4991639;28;20116;-60
2022/12/03 06:56:10;;;;;;;17.52;8.88;;;;;;;;;;4991979;28;20077;-60
2022/12/03 06:58:36;;;;;;;17.67;8.93;;;;;;;;;;4991552;28;20027;-72
2022/12/03 07:01:02;;;;;;;16.20;8.52;;;;;;;;;;4991039;28;20026;-67
2022/12/03 07:03:28;;;;;;;15.77;8.35;;;;;;;;;;4981118;28;20030;-68
2022/12/03 07:05:54;;;;;;;21.23;9.60;;;;;;;;;;4981033;28;20083;-70
2022/12/03 07:08:20;;;;;;;21.77;9.60;;;;;;;;;;4979631;28;20031;-65
2022/12/03 07:10:46;;;;;;;16.45;8.90;;;;;;;;;;4980958;28;20026;-61
2022/12/03 07:13:12;;;;;;;17.70;9.23;;;;;;;;;;4980332;28;20110;-61
2022/12/03 07:15:38;;;;;;;16.80;9.32;;;;;;;;;;4979639;28;20093;-59
2022/12/03 07:18:04;;;;;;;17.88;9.23;;;;;;;;;;4979031;28;20034;-62
2022/12/03 07:20:30;;;;;;;18.83;9.90;;;;;;;;;;4978690;28;20061;-61
2022/12/03 07:22:56;;;;;;;29.90;15.20;;;;;;;;;;4979805;28;20066;-65
2022/12/03 07:25:22;;;;;;;22.40;12.07;;;;;;;;;;4980042;28;20073;-65
2022/12/03 07:27:48;;;;;;;26.13;14.70;;;;;;;;;;4981082;28;20030;-59
2022/12/03 07:30:15;;;;;;;21.80;12.23;;;;;;;;;;4979547;28;20023;-62
2022/12/03 07:32:41;;;;;;;24.20;12.13;;;;;;;;;;4980412;28;20478;-60
2022/12/03 07:35:07;;;;;;;19.48;9.85;;;;;;;;;;4962516;28;20525;-65
2022/12/03 07:37:33;;;;;;;20.33;10.75;;;;;;;;;;4970511;28;20047;-62
2022/12/03 07:39:59;;;;;;;22.20;10.85;;;;;;;;;;4961030;28;20043;-65
2022/12/03 07:42:26;;;;;;;17.48;9.07;;;;;;;;;;4959266;28;20042;-61
2022/12/03 07:44:52;;;;;;;22.95;11.38;;;;;;;;;;4961358;28;20053;-66
2022/12/03 07:47:18;;;;;;;22.38;11.82;;;;;;;;;;4960885;28;20387;-61
2022/12/03 07:49:44;;;;;;;27.20;14.48;;;;;;;;;;4959475;28;20030;-62
2022/12/03 07:52:10;;;;;;;28.13;14.80;;;;;;;;;;4960714;28;20027;-62
2022/12/03 07:54:36;;;;;;;31.83;15.85;;;;;;;;;;4960186;28;20082;-62
2022/12/03 07:57:02;;;;;;;23.13;13.93;;;;;;;;;;4964112;28;20475;-62
2022/12/03 07:59:28;;;;;;;26.20;14.40;;;;;;;;;;4961575;28;20463;-67
2022/12/03 08:01:54;;;;;;;38.90;19.58;;;;;;;;;;4971214;28;20031;-65
2022/12/03 08:04:20;;;;;;;32.70;16.98;;;;;;;;;;4971006;28;20062;-61
2022/12/03 08:06:47;;;;;;;25.70;13.82;;;;;;;;;;4960417;28;20023;-60
2022/12/03 08:09:13;;;;;;;25.27;13.00;;;;;;;;;;4951866;29;20559;-60
2022/12/03 08:11:39;;;;;;;32.35;15.45;;;;;;;;;;4951945;29;20023;-63
2022/12/03 08:14:12;;;;;;;25.17;13.85;;;;;;;;;;4951576;29;20082;-65
2022/12/03 08:16:39;;;;;;;27.63;12.65;;;;;;;;;;4952090;29;20077;-60
2022/12/03 08:19:09;;;;;;;28.27;13.05;;;;;;;;;;4952276;29;20030;-73
2022/12/03 08:21:36;;;;;;;23.35;11.98;;;;;;;;;;4955534;28;20053;-64
2022/12/03 08:24:11;;;;;;;26.70;13.07;;;;;;;;;;4955220;28;20046;-63
2022/12/03 08:26:37;;;;;;;25.63;12.77;;;;;;;;;;4954226;28;20043;-67
2022/12/03 08:29:08;;;;;;;24.35;12.68;;;;;;;;;;4942269;28;20027;-71
2022/12/03 08:31:34;;;;;;;24.38;13.10;;;;;;;;;;4960673;28;20026;-58
2022/12/03 08:34:17;;;;;;;31.15;15.70;;;;;;;;;;4959554;28;20356;-72
2022/12/03 08:36:44;;;;;;;24.00;12.57;;;;;;;;;;4957600;28;20572;-62
2022/12/03 08:39:28;;;;;;;22.27;11.52;;;;;;;;;;4960695;28;20163;-61
2022/12/03 08:44:41;;;;;;;25.27;12.05;;;;;;;;;;4965369;28;20114;-61
2022/12/03 08:47:11;;;;;;;25.05;13.38;;;;;;;;;;4960542;28;20086;-60
2022/12/03 08:49:38;;;;;;;25.65;13.68;;;;;;;;;;4965468;28;20023;-61
2022/12/03 08:52:18;;;;;;;25.40;14.05;;;;;;;;;;4969020;28;20031;-59
2022/12/03 08:54:47;;;;;;;23.05;12.02;;;;;;;;;;4975069;28;20054;-74
2022/12/03 08:57:24;;;;;;;20.40;11.30;;;;;;;;;;4975075;28;20049;-60
2022/12/03 08:59:53;;;;;;;20.60;11.10;;;;;;;;;;4974783;28;20026;-77
2022/12/03 09:02:26;;;;;;;20.00;11.18;;;;;;;;;;4974467;28;20105;-59
2022/12/03 09:04:53;;;;;;;;;;;;;;;;;;4975351;28;20038;-78
2022/12/03 09:07:19;;;;;;;19.05;10.38;;;;;;;;;;4974746;28;20297;-61
2022/12/03 09:09:45;;;;;;;21.55;9.75;;;;;;;;;;4974308;28;20123;-76
2022/12/03 09:12:11;;;;;;;20.20;10.45;;;;;;;;;;4974458;28;20134;-62
2022/12/03 09:14:37;;;;;;;21.63;11.15;;;;;;;;;;4974692;28;20027;-65
2022/12/03 09:17:03;;;;;;;22.00;10.00;;;;;;;;;;4974643;28;20042;-72
2022/12/03 09:19:29;;;;;;;22.70;11.07;;;;;;;;;;4956465;28;20837;-61
2022/12/03 09:21:56;;;;;;;19.90;10.95;;;;;;;;;;4974455;28;20081;-73
2022/12/03 09:24:22;;;;;;;17.90;10.32;;;;;;;;;;4973799;28;20479;-77
2022/12/03 09:26:49;;;;;;;18.38;9.93;;;;;;;;;;4974413;28;20023;-78
2022/12/03 09:29:15;;;;;;;17.75;9.80;;;;;;;;;;4956506;28;20059;-61
2022/12/03 09:31:41;;;;;;;18.83;9.80;;;;;;;;;;4956887;28;20058;-61
2022/12/03 09:34:07;;;;;;;18.10;10.07;;;;;;;;;;4974152;28;20092;-73
2022/12/03 09:36:33;;;;;;;23.70;11.15;;;;;;;;;;4973850;28;20057;-60
2022/12/03 09:38:59;;;;;;;19.48;11.00;;;;;;;;;;4973657;28;20078;-65
2022/12/03 09:41:25;;;;;;;24.05;12.77;;;;;;;;;;4974497;28;20031;-63
2022/12/03 09:43:52;;;;;;;23.92;11.50;;;;;;;;;;4974257;28;20033;-68
2022/12/03 09:46:18;;;;;;;25.92;11.95;;;;;;;;;;4973995;28;20089;-61
2022/12/03 09:48:44;;;;;;;21.95;11.55;;;;;;;;;;4973852;28;20033;-61
2022/12/03 09:51:11;;;;;;;20.20;10.82;;;;;;;;;;4973928;28;20034;-63
2022/12/03 09:53:37;;;;;;;19.70;10.32;;;;;;;;;;4973967;28;20825;-61
2022/12/03 09:56:03;;;;;;;20.05;10.18;;;;;;;;;;4973809;28;20535;-72
2022/12/03 09:58:29;;;;;;;17.20;9.52;;;;;;;;;;4973786;28;20122;-61
2022/12/03 10:00:56;;;;;;;25.60;11.10;;;;;;;;;;4974134;28;20106;-77
2022/12/03 10:03:24;;;;;;;19.50;10.65;;;;;;;;;;4973788;28;20739;-77
2022/12/03 10:05:50;;;;;;;17.83;10.30;;;;;;;;;;4972905;28;20345;-72
2022/12/03 10:08:20;;;;;;;20.38;10.90;;;;;;;;;;4974009;28;20053;-66
2022/12/03 10:10:47;;;;;;;17.42;9.85;;;;;;;;;;4973594;28;20375;-70
2022/12/03 10:13:19;;;;;;;17.30;9.82;;;;;;;;;;4973778;28;20081;-64
2022/12/03 10:15:47;;;;;;;18.15;9.73;;;;;;;;;;4973627;28;20077;-70
2022/12/03 10:18:19;;;;;;;18.92;9.95;;;;;;;;;;4973429;28;20030;-61
2022/12/03 10:20:45;;;;;;;19.75;11.15;;;;;;;;;;4973638;28;20041;-71
2022/12/03 10:23:25;;;;;;;17.75;9.88;;;;;;;;;;4973213;28;20608;-74
2022/12/03 10:25:52;;;;;;;19.48;10.93;;;;;;;;;;4973703;28;20054;-76
2022/12/03 10:28:38;;;;;;;22.88;11.38;;;;;;;;;;4973577;28;20102;-72
2022/12/03 10:31:05;;;;;;;18.52;9.55;;;;;;;;;;4973373;28;20035;-60
2022/12/03 10:33:33;;;;;;;18.10;9.77;;;;;;;;;;4973657;28;20509;-76
2022/12/03 10:36:17;;;;;;;18.50;10.00;;;;;;;;;;4973301;28;20042;-61
2022/12/03 10:38:43;;;;;;;17.08;9.50;;;;;;;;;;4972973;28;20047;-60
2022/12/03 10:41:27;;;;;;;19.00;10.05;;;;;;;;;;4972837;28;20034;-60
2022/12/03 10:43:53;;;;;;;16.65;9.90;;;;;;;;;;4973165;28;20088;-77
2022/12/03 10:46:20;;;;;;;17.15;9.10;;;;;;;;;;4955377;28;20130;-74
2022/12/03 10:49:06;;;;;;;16.27;9.05;;;;;;;;;;4972725;28;20027;-75
2022/12/03 10:51:32;;;;;;;17.80;9.35;;;;;;;;;;4972482;28;20490;-74
2022/12/03 10:53:58;;;;;;;17.13;9.70;;;;;;;;;;4972337;28;20034;-64
2022/12/03 10:56:25;;;;;;;18.65;9.13;;;;;;;;;;4972523;28;20073;-60
2022/12/03 10:58:51;;;;;;;18.65;9.70;;;;;;;;;;4955712;28;20023;-74
2022/12/03 11:01:19;;;;;;;17.17;9.48;;;;;;;;;;4972455;28;20027;-61
2022/12/03 11:03:45;;;;;;;15.98;10.10;;;;;;;;;;4972642;28;20026;-60
2022/12/03 11:06:15;;;;;;;19.77;9.45;;;;;;;;;;4972221;28;20034;-75
2022/12/03 11:08:42;;;;;;;17.92;10.05;;;;;;;;;;4972162;28;20026;-70
2022/12/03 11:11:21;;;;;;;17.52;9.43;;;;;;;;;;4972305;28;20077;-61
2022/12/03 11:13:48;;;;;;;17.15;9.38;;;;;;;;;;4972078;28;20027;-64
2022/12/03 11:16:34;;;;;;;16.17;8.95;;;;;;;;;;4971875;28;20038;-74
2022/12/03 11:19:01;;;;;;;19.63;9.48;;;;;;;;;;4972160;28;20026;-76
2022/12/03 11:21:27;;;;;;;14.68;8.90;;;;;;;;;;4971974;28;20061;-60
2022/12/03 11:23:53;;;;;;;16.02;8.93;;;;;;;;;;4971729;28;20463;-65
2022/12/03 11:26:28;;;;;;;17.92;9.65;;;;;;;;;;4972203;28;20085;-62
2022/12/03 11:28:55;;;;;;;15.98;8.95;;;;;;;;;;4972202;28;20069;-60
2022/12/03 11:31:37;;;;;;;16.02;8.70;;;;;;;;;;4972215;28;20023;-60
2022/12/03 11:34:18;;;;;;;15.13;8.82;;;;;;;;;;4972178;28;20806;-75
2022/12/03 11:37:03;;;;;;;16.15;9.18;;;;;;;;;;4971624;28;20041;-76
2022/12/03 11:39:48;;;;;;;15.77;8.80;;;;;;;;;;4971856;28;20078;-61
2022/12/03 11:42:25;;;;;;;16.63;9.27;;;;;;;;;;4972111;28;20058;-60
2022/12/03 11:45:12;;;;;;;19.73;10.13;;;;;;;;;;4971848;28;20062;-60
2022/12/03 11:47:39;;;;;;;19.13;11.18;;;;;;;;;;4959011;28;20046;-60
2022/12/03 11:50:23;;;;;;;16.10;9.77;;;;;;;;;;4971922;28;20078;-60
2022/12/03 11:52:53;;;;;;;16.60;10.02;;;;;;;;;;4971884;28;20082;-68
2022/12/03 11:55:27;;;;;;;18.30;10.43;;;;;;;;;;4971844;28;20050;-60
2022/12/03 11:58:00;;;;;;;17.98;10.70;;;;;;;;;;4971808;28;20081;-60
2022/12/03 12:00:27;;;;;;;20.13;10.40;;;;;;;;;;4971851;28;20034;-66
2022/12/03 12:02:53;;;;;;;20.13;11.45;;;;;;;;;;4971752;28;20412;-60
2022/12/03 12:05:23;;;;;;;17.40;10.13;;;;;;;;;;4971556;28;20117;-60
2022/12/03 12:07:49;;;;;;;23.23;11.93;;;;;;;;;;4971562;28;20483;-60
2022/12/03 12:10:33;;;;;;;23.23;12.10;;;;;;;;;;4971586;28;20042;-60
2022/12/03 12:13:03;;;;;;;24.98;12.00;;;;;;;;;;4972044;28;20027;-70
2022/12/03 12:15:38;;;;;;;25.48;11.85;;;;;;;;;;4971747;28;20045;-67
2022/12/03 12:18:36;;;;;;;19.00;10.10;;;;;;;;;;4971631;28;20109;-61
2022/12/03 12:21:21;;;;;;;18.83;8.95;;;;;;;;;;4893090;29;20068;-59
2022/12/03 12:23:47;;;;;;;18.90;10.40;;;;;;;;;;4893158;29;20089;-63
2022/12/03 12:26:13;;;;;;;17.02;9.77;;;;;;;;;;4892965;29;20033;-75
2022/12/03 12:28:39;;;;;;;20.73;11.52;;;;;;;;;;4894745;29;20121;-62
2022/12/03 12:31:11;;;;;;;21.55;11.25;;;;;;;;;;4896533;29;20040;-61
2022/12/03 12:33:37;;;;;;;16.88;9.73;;;;;;;;;;4896702;29;20147;-71
2022/12/03 12:36:08;;;;;;;19.60;10.90;;;;;;;;;;4896717;29;20083;-62
2022/12/03 12:38:34;;;;;;;14.57;8.10;;;;;;;;;;4896112;29;20056;-60
2022/12/03 12:41:04;;;;;;;19.27;10.10;;;;;;;;;;4896557;29;20044;-78
2022/12/03 12:43:32;;;;;;;18.75;10.70;;;;;;;;;;4896411;29;20066;-62
2022/12/03 12:46:09;;;;;;;19.00;10.18;;;;;;;;;;4896187;29;20040;-61
2022/12/03 12:48:35;;;;;;;17.40;9.80;;;;;;;;;;4896264;29;20112;-67
2022/12/03 12:51:10;;;;;;;22.30;12.07;;;;;;;;;;4880966;29;20037;-62
2022/12/03 12:53:37;;;;;;;24.67;12.35;;;;;;;;;;4896189;29;20096;-69
2022/12/03 12:56:22;;;;;;;22.83;12.18;;;;;;;;;;4916782;28;20058;-64
2022/12/03 12:58:48;;;;;;;20.80;11.63;;;;;;;;;;4974904;28;20040;-60
2022/12/03 13:01:35;;;;;;;25.58;12.95;;;;;;;;;;4974900;28;20133;-70
2022/12/03 13:04:02;;;;;;;23.65;13.43;;;;;;;;;;4974731;28;20019;-62
2022/12/03 13:06:29;;;;;;;24.48;13.23;;;;;;;;;;4974674;28;20035;-68
2022/12/03 13:08:56;;;;;;;27.35;14.20;;;;;;;;;;4974494;28;20162;-64
2022/12/03 13:11:33;;;;;;;27.15;14.50;;;;;;;;;;4974579;28;20049;-60
2022/12/03 13:14:00;;;;;;;23.30;13.32;;;;;;;;;;4957034;28;20513;-61
2022/12/03 13:16:33;;;;;;;22.02;11.68;;;;;;;;;;4974600;28;20156;-77
2022/12/03 13:19:00;;;;;;;21.00;11.90;;;;;;;;;;4974766;28;20057;-69
2022/12/03 13:21:42;;;;;;;24.63;12.10;;;;;;;;;;4974872;28;20035;-74
2022/12/03 13:24:25;;;;;;;24.10;13.07;;;;;;;;;;4974435;28;20724;-61
2022/12/03 13:26:52;;;;;;;25.08;12.27;;;;;;;;;;4974624;28;20411;-72
2022/12/03 13:29:19;;;;;;;25.98;13.85;;;;;;;;;;4974226;28;20026;-62
2022/12/03 13:31:55;;;;;;;29.85;14.63;;;;;;;;;;4956779;28;20383;-77
2022/12/03 13:34:23;;;;;;;28.52;14.00;;;;;;;;;;4974423;28;20034;-61
2022/12/03 13:36:49;;;;;;;26.00;14.18;;;;;;;;;;4973689;28;20039;-77
2022/12/03 13:39:19;;;;;;;24.65;12.98;;;;;;;;;;4973412;28;20038;-61
2022/12/03 13:44:31;;;;;;;24.83;11.95;;;;;;;;;;4973955;28;20077;-62
2022/12/03 13:46:59;;;;;;;22.77;12.38;;;;;;;;;;4974262;28;20103;-77
2022/12/03 13:49:25;;;;;;;22.30;11.27;;;;;;;;;;4973995;28;20131;-67
2022/12/03 13:51:51;;;;;;;21.63;11.55;;;;;;;;;;4973909;28;20475;-67
2022/12/03 13:54:22;;;;;;;22.20;12.02;;;;;;;;;;4973946;28;20081;-78
2022/12/03 13:56:49;;;;;;;21.98;12.57;;;;;;;;;;4973661;28;20126;-61
2022/12/03 13:59:15;;;;;;;23.30;12.77;;;;;;;;;;4973639;28;20467;-69
2022/12/03 14:01:42;;;;;;;25.55;13.75;;;;;;;;;;4973354;28;20026;-68
2022/12/03 14:04:08;;;;;;;26.02;13.20;;;;;;;;;;4973750;28;20030;-67
2022/12/03 14:06:34;;;;;;;25.60;12.60;;;;;;;;;;4973745;28;20038;-61
2022/12/03 14:09:00;;;;;;;21.65;11.07;;;;;;;;;;4973325;28;20133;-62
2022/12/03 14:14:11;;;;;;;23.23;11.60;;;;;;;;;;4973250;28;20410;-73
2022/12/03 14:16:37;;;;;;;23.00;12.27;;;;;;;;;;4973362;28;20035;-62
2022/12/03 14:19:03;;;;;;;21.88;11.15;;;;;;;;;;4973573;28;20023;-77
2022/12/03 14:21:29;;;;;;;24.75;12.45;;;;;;;;;;4973152;28;20046;-62
2022/12/03 14:23:55;;;;;;;23.17;11.65;;;;;;;;;;4973147;28;20023;-75
2022/12/03 14:26:21;;;;;;;24.85;12.13;;;;;;;;;;4973486;28;20037;-71
2022/12/03 14:28:47;;;;;;;21.17;11.30;;;;;;;;;;4973326;28;20098;-78
2022/12/03 14:31:13;;;;;;;21.80;10.95;;;;;;;;;;4973457;28;20026;-78
2022/12/03 14:33:39;;;;;;;24.33;12.02;;;;;;;;;;4973174;28;20030;-62
2022/12/03 14:36:05;;;;;;;23.80;11.32;;;;;;;;;;4972873;28;20038;-61
2022/12/03 14:38:31;;;;;;;22.58;11.45;;;;;;;;;;4972494;28;20039;-75
2022/12/03 14:40:57;;;;;;;25.25;12.23;;;;;;;;;;4973267;28;20431;-64
2022/12/03 14:43:23;;;;;;;23.25;12.38;;;;;;;;;;4972850;28;20023;-61
2022/12/03 14:45:49;;;;;;;25.98;12.82;;;;;;;;;;4973002;28;20031;-68
2022/12/03 14:48:16;;;;;;;30.50;12.50;;;;;;;;;;4972758;28;20030;-61
2022/12/03 14:50:42;;;;;;;24.73;11.98;;;;;;;;;;4972429;28;20026;-61
2022/12/03 14:53:08;;;;;;;24.45;11.98;;;;;;;;;;4972612;28;20034;-78
2022/12/03 14:55:34;;;;;;;23.98;11.75;;;;;;;;;;4973010;28;20089;-74
2022/12/03 14:58:00;;;;;;;28.45;12.57;;;;;;;;;;4972961;28;20035;-61
2022/12/03 15:00:26;;;;;;;26.15;14.00;;;;;;;;;;4973051;28;20541;-61
2022/12/03 15:02:52;;;;;;;29.67;12.95;;;;;;;;;;4972290;28;20033;-77
2022/12/03 15:05:19;;;;;;;31.27;14.45;;;;;;;;;;4972596;28;20055;-79
2022/12/03 15:07:45;;;;;;;28.02;12.93;;;;;;;;;;4955062;28;20023;-62
2022/12/03 15:10:11;;;;;;;29.60;14.18;;;;;;;;;;4954084;28;20129;-61
2022/12/03 15:12:37;;;;;;;29.58;14.25;;;;;;;;;;4972385;28;20068;-61
2022/12/03 15:15:04;;;;;;;28.38;13.60;;;;;;;;;;4972014;28;20155;-62
2022/12/03 15:17:30;;;;;;;31.58;14.93;;;;;;;;;;4972427;28;20046;-63
2022/12/03 15:19:56;;;;;;;27.83;14.77;;;;;;;;;;4972459;28;20031;-62
2022/12/03 15:22:22;;;;;;;28.10;14.63;;;;;;;;;;4972097;28;20105;-63
2022/12/03 15:24:48;;;;;;;31.30;16.00;;;;;;;;;;4971651;28;20031;-62
2022/12/03 15:27:14;;;;;;;34.60;16.00;;;;;;;;;;4954692;28;20085;-71
2022/12/03 15:29:40;;;;;;;34.50;17.70;;;;;;;;;;4971667;28;20466;-60
2022/12/03 15:32:06;;;;;;;32.10;15.95;;;;;;;;;;4971936;28;20442;-70
2022/12/03 15:34:32;;;;;;;33.35;17.40;;;;;;;;;;4972039;28;20042;-76
2022/12/03 15:36:58;;;;;;;31.20;16.58;;;;;;;;;;4971653;28;20046;-65
2022/12/03 15:39:24;;;;;;;32.67;16.95;;;;;;;;;;4971695;28;20126;-61
2022/12/03 15:41:50;;;;;;;34.05;16.73;;;;;;;;;;4972053;28;20070;-62
2022/12/03 15:44:16;;;;;;;32.47;16.10;;;;;;;;;;4971940;28;20061;-61
2022/12/03 15:46:42;;;;;;;29.73;15.98;;;;;;;;;;4972205;28;20038;-60
2022/12/03 15:49:08;;;;;;;30.98;15.98;;;;;;;;;;4972186;28;20097;-61
2022/12/03 15:51:34;;;;;;;30.42;15.68;;;;;;;;;;4972114;28;20050;-60
2022/12/03 15:54:00;;;;;;;31.17;16.25;;;;;;;;;;4971720;28;20039;-61
2022/12/03 15:56:26;;;;;;;29.67;15.70;;;;;;;;;;4972281;28;20093;-60
2022/12/03 15:58:52;;;;;;;33.10;15.55;;;;;;;;;;4972025;28;20153;-61
2022/12/03 16:01:18;;;;;;;33.50;16.45;;;;;;;;;;4971787;28;20030;-61
2022/12/03 16:03:44;;;;;;;33.92;15.70;;;;;;;;;;4973909;28;20015;-60
2022/12/03 16:06:11;;;;;;;35.25;17.13;;;;;;;;;;4976087;28;20031;-60
2022/12/03 16:08:37;;;;;;;31.48;16.90;;;;;;;;;;4958096;28;20065;-60
2022/12/03 16:11:03;;;;;;;36.05;17.40;;;;;;;;;;4975470;28;20034;-75
2022/12/03 16:13:29;;;;;;;36.95;17.13;;;;;;;;;;4975966;28;20500;-65
2022/12/03 16:15:55;;;;;;;33.65;17.20;;;;;;;;;;4975492;28;20081;-60
2022/12/03 16:18:21;;;;;;;34.50;17.00;;;;;;;;;;4975532;28;20058;-61
2022/12/03 16:20:47;;;;;;;37.22;18.58;;;;;;;;;;4975631;28;20073;-76
2022/12/03 16:23:13;;;;;;;35.58;16.65;;;;;;;;;;4957577;28;20027;-61
2022/12/03 16:25:39;;;;;;;36.05;17.38;;;;;;;;;;4975206;28;20062;-74
2022/12/03 16:28:05;;;;;;;38.15;17.73;;;;;;;;;;4975354;28;20073;-69
2022/12/03 16:30:31;;;;;;;36.65;15.85;;;;;;;;;;4975223;28;20026;-61
2022/12/03 16:32:57;;;;;;;35.13;17.50;;;;;;;;;;4975557;28;20040;-76
2022/12/03 16:35:23;;;;;;;35.13;17.25;;;;;;;;;;4975428;28;20030;-69
2022/12/03 16:37:49;;;;;;;35.20;17.95;;;;;;;;;;4975194;28;20511;-66
2022/12/03 16:40:15;;;;;;;39.22;19.20;;;;;;;;;;4969265;28;20038;-61
2022/12/03 16:42:41;;;;;;;36.15;17.13;;;;;;;;;;4971902;28;20034;-63
2022/12/03 16:47:34;;;;;;;42.40;19.42;;;;;;;;;;4964713;28;20042;-61
2022/12/03 16:50:01;;;;;;;37.40;19.30;;;;;;;;;;4962815;28;20496;-62
2022/12/03 16:52:27;;;;;;;37.50;17.67;;;;;;;;;;4965604;28;20035;-62
2022/12/03 16:54:53;;;;;;;40.95;19.45;;;;;;;;;;4963773;28;20075;-67
2022/12/03 16:57:19;;;;;;;39.05;17.80;;;;;;;;;;4957435;28;20071;-68
2022/12/03 16:59:45;;;;;;;35.65;17.75;;;;;;;;;;4955524;29;20535;-61
2022/12/03 17:02:11;;;;;;;36.20;17.27;;;;;;;;;;4954733;29;20500;-75
2022/12/03 17:04:37;;;;;;;37.28;18.15;;;;;;;;;;4955206;29;20031;-70
2022/12/03 17:07:03;;;;;;;37.72;17.73;;;;;;;;;;4955549;29;20034;-65
2022/12/03 17:09:30;;;;;;;37.70;17.60;;;;;;;;;;4964438;28;20053;-66
2022/12/03 17:11:56;;;;;;;33.65;15.93;;;;;;;;;;4974806;28;20027;-62
2022/12/03 17:14:22;;;;;;;35.15;17.20;;;;;;;;;;4974159;28;20398;-73
2022/12/03 17:16:48;;;;;;;37.03;16.33;;;;;;;;;;4974367;28;20042;-62
2022/12/03 17:19:14;;;;;;;37.10;18.13;;;;;;;;;;4974522;28;20023;-61
2022/12/03 17:21:41;;;;;;;39.50;16.83;;;;;;;;;;4974314;28;20037;-62
2022/12/03 17:24:07;;;;;;;37.10;17.45;;;;;;;;;;4974000;28;20037;-61
2022/12/03 17:26:33;;;;;;;35.90;16.30;;;;;;;;;;4973809;28;20033;-61
2022/12/03 17:28:59;;;;;;;39.40;18.67;;;;;;;;;;4974494;28;20085;-60
2022/12/03 17:31:25;;;;;;;37.75;18.63;;;;;;;;;;4974319;28;20062;-75
2022/12/03 17:33:56;;;;;;;36.83;17.27;;;;;;;;;;4974247;28;20033;-59
2022/12/03 17:36:22;;;;;;;37.58;18.52;;;;;;;;;;4974242;28;20078;-60
2022/12/03 17:38:48;;;;;;;36.55;17.45;;;;;;;;;;4973564;28;20047;-77
2022/12/03 17:41:14;;;;;;;35.85;16.83;;;;;;;;;;4973532;28;20483;-61
2022/12/03 17:43:40;;;;;;;35.45;16.85;;;;;;;;;;4974154;28;20403;-62
2022/12/03 17:46:06;;;;;;;39.65;17.30;;;;;;;;;;4973715;28;20494;-83
2022/12/03 17:48:32;;;;;;;29.92;15.30;;;;;;;;;;4974347;28;20037;-81
2022/12/03 17:50:58;;;;;;;34.08;15.82;;;;;;;;;;4974582;28;20113;-63
2022/12/03 17:53:24;;;;;;;30.35;14.75;;;;;;;;;;4974218;28;20494;-63
2022/12/03 17:55:50;;;;;;;33.38;15.95;;;;;;;;;;4973537;28;20403;-62
2022/12/03 17:58:16;;;;;;;34.03;16.23;;;;;;;;;;4973796;28;20518;-67
2022/12/03 18:00:42;;;;;;;33.60;16.33;;;;;;;;;;4973997;28;20166;-69
2022/12/03 18:03:08;;;;;;;35.55;16.60;;;;;;;;;;4973546;28;20034;-63
2022/12/03 18:05:34;;;;;;;36.88;16.45;;;;;;;;;;4973617;28;20034;-81
2022/12/03 18:08:00;;;;;;;33.53;15.43;;;;;;;;;;4973211;28;20558;-61
2022/12/03 18:10:27;;;;;;;35.65;17.50;;;;;;;;;;4973172;28;20034;-62
2022/12/03 18:12:53;;;;;;;33.70;16.67;;;;;;;;;;4973599;28;20057;-62
2022/12/03 18:15:19;;;;;;;34.47;16.58;;;;;;;;;;4973377;28;20110;-62
2022/12/03 18:17:45;;;;;;;37.42;16.98;;;;;;;;;;4973596;28;20498;-61
2022/12/03 18:20:11;;;;;;;38.20;17.73;;;;;;;;;;4973417;28;20082;-75
2022/12/03 18:22:37;;;;;;;36.72;17.13;;;;;;;;;;4973297;28;20202;-61
2022/12/03 18:25:03;;;;;;;34.95;15.48;;;;;;;;;;4972553;28;20039;-75
2022/12/03 18:27:29;;;;;;;33.35;16.75;;;;;;;;;;4972273;28;20031;-61
2022/12/03 18:29:55;;;;;;;32.50;16.45;;;;;;;;;;4972768;28;20435;-78
2022/12/03 18:32:21;;;;;;;33.10;15.10;;;;;;;;;;4972968;28;20027;-61
2022/12/03 18:34:47;;;;;;;32.92;15.75;;;;;;;;;;4969023;28;20035;-61
2022/12/03 18:37:14;;;;;;;34.83;16.83;;;;;;;;;;4953623;28;20051;-61
2022/12/03 18:39:41;;;;;;;32.75;15.73;;;;;;;;;;4963751;28;20593;-61
2022/12/03 18:42:14;;;;;;;35.63;16.25;;;;;;;;;;4972908;28;20030;-69
2022/12/03 18:44:40;;;;;;;35.35;14.68;;;;;;;;;;4972577;28;20031;-70
2022/12/03 18:47:13;;;;;;;25.60;13.48;;;;;;;;;;4975889;28;20027;-63
2022/12/03 18:49:40;;;;;;;30.98;15.75;;;;;;;;;;4971791;28;20062;-79
2022/12/03 18:52:06;;;;;;;31.90;14.55;;;;;;;;;;4972226;28;20023;-62
2022/12/03 18:54:32;;;;;;;31.05;14.25;;;;;;;;;;4968053;28;20031;-62
2022/12/03 18:56:58;;;;;;;31.80;14.18;;;;;;;;;;4957378;28;20031;-67
2022/12/03 18:59:24;;;;;;;33.53;14.90;;;;;;;;;;4952851;29;20078;-64
2022/12/03 19:01:50;;;;;;;32.80;15.77;;;;;;;;;;4953001;28;20443;-66
2022/12/03 19:04:16;;;;;;;25.40;11.00;;;;;;;;;;4971018;28;20031;-76
2022/12/03 19:06:42;;;;;;;34.67;14.73;;;;;;;;;;4971946;28;20066;-62
2022/12/03 19:09:08;;;;;;;30.27;14.90;;;;;;;;;;4972192;28;20090;-76
2022/12/03 19:11:34;;;;;;;29.27;14.43;;;;;;;;;;4971848;28;20074;-77
2022/12/03 19:14:01;;;;;;;30.20;13.52;;;;;;;;;;4972402;28;20542;-62
2022/12/03 19:16:27;;;;;;;31.35;13.88;;;;;;;;;;4975122;28;20042;-69
2022/12/03 19:18:54;;;;;;;30.42;13.75;;;;;;;;;;4967784;28;20034;-61
2022/12/03 19:21:20;;;;;;;26.23;12.23;;;;;;;;;;4965971;28;20435;-68
2022/12/03 19:23:46;;;;;;;25.63;13.30;;;;;;;;;;4963431;28;20082;-71
2022/12/03 19:26:12;;;;;;;30.38;14.27;;;;;;;;;;4961553;28;20039;-81
2022/12/03 19:28:39;;;;;;;32.35;14.18;;;;;;;;;;4967602;28;20034;-63
2022/12/03 19:31:05;;;;;;;30.13;13.02;;;;;;;;;;4955320;28;20039;-63
2022/12/03 19:33:31;;;;;;;27.80;13.40;;;;;;;;;;4959239;28;20487;-61
2022/12/03 19:35:58;;;;;;;29.75;14.38;;;;;;;;;;4943517;28;20130;-64
2022/12/03 19:38:25;;;;;;;26.55;11.95;;;;;;;;;;4961179;28;20061;-79
2022/12/03 19:41:01;;;;;;;27.50;13.98;;;;;;;;;;4965149;28;20514;-68
2022/12/03 19:43:27;;;;;;;23.20;12.00;;;;;;;;;;4965750;28;20023;-61
2022/12/03 19:45:54;;;;;;;25.35;11.82;;;;;;;;;;4965022;28;20024;-60
2022/12/03 19:48:21;;;;;;;24.23;12.38;;;;;;;;;;4980974;28;20486;-60
2022/12/03 19:50:48;;;;;;;24.33;12.27;;;;;;;;;;4970984;28;20042;-78
2022/12/03 19:53:14;;;;;;;23.55;11.85;;;;;;;;;;4973526;28;20030;-61
2022/12/03 19:55:40;;;;;;;22.83;11.43;;;;;;;;;;4951747;29;20034;-78
2022/12/03 19:58:06;;;;;;;25.23;12.48;;;;;;;;;;4952375;28;20051;-60
2022/12/03 20:00:34;;;;;;;26.13;12.95;;;;;;;;;;4970705;28;20097;-61
2022/12/03 20:03:00;;;;;;;26.98;12.68;;;;;;;;;;4966992;28;20063;-62
2022/12/03 20:05:26;;;;;;;27.75;13.10;;;;;;;;;;4965739;28;20058;-62
2022/12/03 20:07:52;;;;;;;29.17;14.25;;;;;;;;;;4971365;28;20125;-62
2022/12/03 20:10:18;;;;;;;30.13;13.98;;;;;;;;;;4971120;28;20038;-78
2022/12/03 20:12:44;;;;;;;31.00;13.55;;;;;;;;;;4968208;28;20034;-64
2022/12/03 20:15:11;;;;;;;29.88;13.40;;;;;;;;;;4958405;28;20058;-62
2022/12/03 20:17:37;;;;;;;25.67;11.18;;;;;;;;;;4963859;28;20434;-62
2022/12/03 20:20:03;;;;;;;27.75;12.20;;;;;;;;;;4971634;28;20030;-60
2022/12/03 20:22:30;;;;;;;27.50;12.70;;;;;;;;;;4961689;28;20110;-71
2022/12/03 20:24:56;;;;;;;30.20;11.65;;;;;;;;;;4968092;28;20026;-60
2022/12/03 20:27:22;;;;;;;28.10;11.88;;;;;;;;;;4970454;28;20034;-61
2022/12/03 20:29:48;;;;;;;21.17;10.50;;;;;;;;;;4965220;28;20031;-61
2022/12/03 20:32:14;;;;;;;21.77;11.13;;;;;;;;;;4960585;28;20085;-74
2022/12/03 20:34:40;;;;;;;27.00;11.93;;;;;;;;;;4955871;28;20121;-60
2022/12/03 20:37:06;;;;;;;27.50;11.60;;;;;;;;;;4961755;28;20051;-75
2022/12/03 20:39:32;;;;;;;25.77;11.52;;;;;;;;;;4958103;28;20051;-73
2022/12/03 20:41:58;;;;;;;22.95;9.93;;;;;;;;;;4951314;29;20066;-63
2022/12/03 20:44:24;;;;;;;20.52;10.10;;;;;;;;;;4957075;28;20035;-61
2022/12/03 20:46:50;;;;;;;21.40;11.27;;;;;;;;;;4964674;28;20464;-64
2022/12/03 20:49:16;;;;;;;23.00;10.00;;;;;;;;;;4963700;28;20015;-60
2022/12/03 20:51:42;;;;;;;22.25;10.00;;;;;;;;;;4955262;29;20031;-71
2022/12/03 20:54:09;;;;;;;22.05;9.23;;;;;;;;;;4954981;29;20023;-59
2022/12/03 20:56:38;;;;;;;19.60;8.32;;;;;;;;;;4954793;29;20475;-60
2022/12/03 20:59:09;;;;;;;19.15;8.68;;;;;;;;;;4980432;28;20509;-68
2022/12/03 21:01:37;;;;;;;13.30;6.73;;;;;;;;;;4994017;28;20026;-61
2022/12/03 21:04:03;;;;;;;15.90;8.20;;;;;;;;;;4993629;28;20118;-59
2022/12/03 21:06:30;;;;;;;15.57;8.02;;;;;;;;;;4994087;28;20015;-63
2022/12/03 21:08:57;;;;;;;15.93;8.35;;;;;;;;;;4993533;28;20038;-61
2022/12/03 21:11:24;;;;;;;16.88;8.43;;;;;;;;;;4993731;28;20030;-61